Time;durP1;ratioP1;P1;durP2;ratioP2;P2;SDS_P1;SDS_P2;PMS_P1;PMS_P2;Temp;Humidity;BMP_temperature;BMP_pressure;BME280_temperature;BME280_humidity;BME280_pressure;Samples;Min_cycle;Max_cycle;Signal;HPM_P1;HPM_P2
2022/01/01 00:01:08;;;;;;;4.05;3.20;;;12.10;91.10;;;;;;5009089;28;20037;-81
2022/01/01 00:03:33;;;;;;;8.88;3.38;;;12.10;91.10;;;;;;5041037;28;20041;-81
2022/01/01 00:05:59;;;;;;;4.30;2.88;;;12.10;91.10;;;;;;5014107;28;20790;-80
2022/01/01 00:08:24;;;;;;;4.15;3.33;;;12.10;91.10;;;;;;5015787;28;20047;-82
2022/01/01 00:10:51;;;;;;;5.03;3.50;;;12.10;91.10;;;;;;4985140;28;20044;-82
2022/01/01 00:13:16;;;;;;;7.93;4.47;;;12.10;91.10;;;;;;5009301;28;20306;-81
2022/01/01 00:15:42;;;;;;;4.90;3.28;;;12.10;91.10;;;;;;5003994;28;20496;-81
2022/01/01 00:18:07;;;;;;;6.80;3.38;;;12.10;91.10;;;;;;5001302;28;20037;-81
2022/01/01 00:20:33;;;;;;;5.30;3.35;;;12.10;91.00;;;;;;5015836;28;20534;-81
2022/01/01 00:22:59;;;;;;;4.88;3.58;;;12.20;91.10;;;;;;4998266;28;20049;-80
2022/01/01 00:25:24;;;;;;;5.53;3.40;;;12.10;91.10;;;;;;5024636;28;20100;-82
2022/01/01 00:27:50;;;;;;;9.85;3.97;;;12.10;91.00;;;;;;4996719;28;20116;-81
2022/01/01 00:30:15;;;;;;;12.60;9.48;;;12.20;91.10;;;;;;5013419;28;20068;-80
2022/01/01 00:32:41;;;;;;;10.35;6.93;;;12.10;91.00;;;;;;5018941;28;20040;-81
2022/01/01 00:35:07;;;;;;;5.05;3.75;;;12.10;91.00;;;;;;4995735;28;20057;-80
2022/01/01 00:37:32;;;;;;;5.10;3.33;;;12.10;91.00;;;;;;5032556;28;20045;-80
2022/01/01 00:39:58;;;;;;;4.32;2.88;;;12.20;91.10;;;;;;5000942;28;20042;-81
2022/01/01 00:42:24;;;;;;;4.25;2.70;;;12.20;91.40;;;;;;5003015;28;20049;-81
2022/01/01 00:44:49;;;;;;;4.03;2.97;;;12.20;91.10;;;;;;5018582;28;20044;-80
2022/01/01 00:47:15;;;;;;;4.00;2.67;;;12.10;91.00;;;;;;4988024;28;20522;-80
2022/01/01 00:49:40;;;;;;;3.20;2.90;;;12.20;91.00;;;;;;5003260;28;20529;-80
2022/01/01 00:52:06;;;;;;;4.18;3.20;;;12.10;91.00;;;;;;4985867;28;20049;-82
2022/01/01 00:54:31;;;;;;;4.65;2.90;;;12.20;91.00;;;;;;5017412;28;20048;-80
2022/01/01 00:56:57;;;;;;;5.32;3.30;;;12.10;91.00;;;;;;5014469;28;20044;-81
2022/01/01 00:59:22;;;;;;;5.18;3.05;;;12.20;91.00;;;;;;5012087;28;20076;-81
2022/01/01 01:01:48;;;;;;;4.82;2.92;;;12.20;91.00;;;;;;5011577;28;20048;-80
2022/01/01 01:04:13;;;;;;;4.78;3.17;;;12.20;91.00;;;;;;5003227;28;20607;-81
2022/01/01 01:06:39;;;;;;;6.78;3.85;;;12.20;91.00;;;;;;5022522;28;20033;-81
2022/01/01 01:09:05;;;;;;;4.18;3.10;;;12.20;90.90;;;;;;5013229;28;20061;-81
2022/01/01 01:11:30;;;;;;;5.30;2.95;;;12.20;90.90;;;;;;5000387;28;20034;-81
2022/01/01 01:14:06;;;;;;;7.18;3.85;;;12.20;90.90;;;;;;4982647;28;20060;-81
2022/01/01 01:16:32;;;;;;;5.75;4.10;;;12.20;90.90;;;;;;4988346;28;20030;-80
2022/01/01 01:18:58;;;;;;;4.20;2.97;;;12.20;90.90;;;;;;5016841;28;20113;-82
2022/01/01 01:21:23;;;;;;;6.35;4.47;;;12.20;90.90;;;;;;5021322;28;20029;-81
2022/01/01 01:23:49;;;;;;;4.07;3.55;;;12.20;90.90;;;;;;5021278;28;20466;-81
2022/01/01 01:26:15;;;;;;;4.30;3.53;;;12.20;90.90;;;;;;5016445;28;20046;-80
2022/01/01 01:28:47;;;;;;;6.18;3.75;;;12.20;90.90;;;;;;5010870;28;20420;-81
2022/01/01 01:31:12;;;;;;;6.25;3.40;;;12.10;90.80;;;;;;5015786;28;20045;-80
2022/01/01 01:33:38;;;;;;;5.05;2.88;;;12.10;90.90;;;;;;4994697;28;20033;-81
2022/01/01 01:36:04;;;;;;;4.85;3.47;;;12.10;90.80;;;;;;5016448;28;20807;-81
2022/01/01 01:38:29;;;;;;;8.13;3.00;;;12.10;90.80;;;;;;5020802;28;20038;-81
2022/01/01 01:40:55;;;;;;;5.80;2.92;;;12.10;90.80;;;;;;5000143;28;20507;-81
2022/01/01 01:43:21;;;;;;;5.80;3.50;;;12.10;90.90;;;;;;5014618;28;20067;-80
2022/01/01 01:45:48;;;;;;;4.72;3.20;;;12.10;90.90;;;;;;5026898;28;20037;-81
2022/01/01 01:48:13;;;;;;;5.90;3.60;;;12.10;90.90;;;;;;5042467;28;20696;-80
2022/01/01 01:50:39;;;;;;;4.43;3.95;;;12.10;90.90;;;;;;5022469;28;20037;-81
2022/01/01 01:53:06;;;;;;;5.20;3.60;;;12.10;90.90;;;;;;5018608;28;20512;-81
2022/01/01 01:55:32;;;;;;;4.05;3.10;;;12.10;90.90;;;;;;5016441;28;21728;-80
2022/01/01 01:57:57;;;;;;;6.38;3.08;;;12.10;90.90;;;;;;5013746;28;20784;-81
2022/01/01 02:03:00;;;;;;;6.13;3.40;;;12.00;90.90;;;;;;5017309;28;20045;-81
2022/01/01 02:05:26;;;;;;;5.78;3.13;;;12.10;90.90;;;;;;5016795;28;20069;-81
2022/01/01 02:07:51;;;;;;;6.90;3.03;;;12.00;90.90;;;;;;5007060;28;20040;-80
2022/01/01 02:10:17;;;;;;;5.95;3.45;;;12.00;90.90;;;;;;4999206;28;20092;-80
2022/01/01 02:12:48;;;;;;;4.78;2.78;;;12.00;90.90;;;;;;5017126;28;20696;-81
2022/01/01 02:15:40;;;;;;;6.30;2.80;;;12.00;90.90;;;;;;5000478;28;20036;-80
2022/01/01 02:18:06;;;;;;;4.13;2.75;;;12.00;90.90;;;;;;5008887;28;20276;-81
2022/01/01 02:20:31;;;;;;;4.18;3.05;;;12.00;90.90;;;;;;5015745;28;20393;-81
2022/01/01 02:23:00;;;;;;;3.45;2.75;;;12.00;90.90;;;;;;5022990;28;20434;-81
2022/01/01 02:25:26;;;;;;;5.03;3.13;;;12.00;90.90;;;;;;5012907;28;20536;-80
2022/01/01 02:27:51;;;;;;;5.00;3.33;;;12.00;90.90;;;;;;5005591;28;20049;-80
2022/01/01 02:30:17;;;;;;;3.92;3.00;;;11.90;90.90;;;;;;5014382;28;20079;-80
2022/01/01 02:32:42;;;;;;;7.68;3.28;;;11.90;90.90;;;;;;4982687;28;20080;-80
2022/01/01 02:35:09;;;;;;;8.43;3.33;;;11.90;90.90;;;;;;5014404;28;20045;-81
2022/01/01 02:37:36;;;;;;;4.70;3.15;;;11.90;90.90;;;;;;5021370;28;20035;-80
2022/01/01 02:40:01;;;;;;;3.15;2.85;;;11.90;90.90;;;;;;5027981;28;20619;-80
2022/01/01 02:42:27;;;;;;;6.13;2.83;;;11.90;90.90;;;;;;5017587;28;20041;-81
2022/01/01 02:44:54;;;;;;;6.60;3.40;;;11.90;90.90;;;;;;5017008;28;20457;-80
2022/01/01 02:47:20;;;;;;;3.75;2.72;;;11.90;90.90;;;;;;5025608;28;20030;-80
2022/01/01 02:49:45;;;;;;;3.75;2.95;;;11.90;91.00;;;;;;4998940;28;20030;-81
2022/01/01 02:52:11;;;;;;;4.85;2.75;;;11.80;90.90;;;;;;5022707;28;20133;-81
2022/01/01 02:54:37;;;;;;;3.95;2.85;;;11.90;91.00;;;;;;5022751;28;20037;-80
2022/01/01 02:57:02;;;;;;;4.97;3.42;;;11.80;91.00;;;;;;5022049;28;20041;-81
2022/01/01 02:59:28;;;;;;;4.63;2.67;;;11.80;91.00;;;;;;5017892;28;20439;-80
2022/01/01 03:01:53;;;;;;;4.82;3.30;;;11.80;91.00;;;;;;4981062;28;20328;-81
2022/01/01 03:04:19;;;;;;;8.70;2.92;;;11.80;91.30;;;;;;5018550;28;20522;-81
2022/01/01 03:06:52;;;;;;;4.68;2.85;;;11.80;91.00;;;;;;5017378;28;20040;-81
2022/01/01 03:09:17;;;;;;;5.07;2.90;;;11.80;91.00;;;;;;5020216;28;20139;-81
2022/01/01 03:11:43;;;;;;;7.57;3.08;;;11.80;91.30;;;;;;5007066;28;20119;-81
2022/01/01 03:14:10;;;;;;;3.17;2.40;;;11.80;91.00;;;;;;5001195;28;20044;-80
2022/01/01 03:16:36;;;;;;;5.15;3.00;;;11.80;91.00;;;;;;5027914;28;20187;-80
2022/01/01 03:19:01;;;;;;;4.20;2.97;;;11.80;91.00;;;;;;5034463;28;20033;-80
2022/01/01 03:21:27;;;;;;;4.28;2.70;;;11.80;91.10;;;;;;5017701;28;20033;-81
2022/01/01 03:23:52;;;;;;;4.55;2.88;;;11.80;91.10;;;;;;5044626;28;20037;-81
2022/01/01 03:26:18;;;;;;;7.78;3.30;;;11.70;91.00;;;;;;5017138;28;20033;-81
2022/01/01 03:28:43;;;;;;;7.82;2.90;;;11.70;91.00;;;;;;5020875;28;20060;-80
2022/01/01 03:31:09;;;;;;;7.00;3.08;;;11.70;91.00;;;;;;5042359;28;20033;-81
2022/01/01 03:33:34;;;;;;;6.00;2.78;;;11.70;91.00;;;;;;5012136;28;20030;-81
2022/01/01 03:36:00;;;;;;;5.45;2.78;;;11.70;91.00;;;;;;5018614;28;20067;-81
2022/01/01 03:38:25;;;;;;;7.22;2.97;;;11.70;91.10;;;;;;5017675;28;20069;-81
2022/01/01 03:40:51;;;;;;;3.35;2.85;;;11.60;91.00;;;;;;5017017;28;20707;-81
2022/01/01 03:43:17;;;;;;;4.25;2.63;;;11.70;91.50;;;;;;5019164;28;20041;-81
2022/01/01 03:45:42;;;;;;;5.75;3.22;;;11.70;91.10;;;;;;5020644;28;20038;-80
2022/01/01 03:48:08;;;;;;;4.18;3.17;;;11.60;91.10;;;;;;5002102;28;20095;-81
2022/01/01 03:50:33;;;;;;;4.75;3.03;;;11.60;91.10;;;;;;5003978;28;20084;-83
2022/01/01 03:52:59;;;;;;;3.67;2.70;;;11.60;91.10;;;;;;5019427;28;20120;-81
2022/01/01 03:55:24;;;;;;;4.85;3.55;;;11.60;91.10;;;;;;5019226;28;20128;-82
2022/01/01 03:57:50;;;;;;;8.95;3.28;;;11.60;91.10;;;;;;5020533;28;20044;-80
2022/01/01 04:00:16;;;;;;;7.35;3.25;;;11.60;91.10;;;;;;5011483;28;20028;-80
2022/01/01 04:02:41;;;;;;;4.93;3.13;;;11.50;91.10;;;;;;5010005;28;20575;-80
2022/01/01 04:05:07;;;;;;;5.18;2.88;;;11.50;91.10;;;;;;5042763;28;20467;-81
2022/01/01 04:07:33;;;;;;;5.97;3.00;;;11.50;91.10;;;;;;5039051;28;20466;-81
2022/01/01 04:09:58;;;;;;;5.22;2.78;;;11.40;91.10;;;;;;5029558;28;20044;-81
2022/01/01 04:12:25;;;;;;;4.30;2.40;;;11.40;91.10;;;;;;4993018;28;20152;-80
2022/01/01 04:14:50;;;;;;;3.85;2.65;;;11.40;91.10;;;;;;5016677;28;20040;-81
2022/01/01 04:17:16;;;;;;;6.80;3.72;;;11.30;91.00;;;;;;5018193;28;20034;-80
2022/01/01 04:19:41;;;;;;;6.75;2.75;;;11.30;91.00;;;;;;5020733;28;20056;-81
2022/01/01 04:22:13;;;;;;;4.72;2.85;;;11.20;91.00;;;;;;5024486;28;20049;-81
2022/01/01 04:24:39;;;;;;;6.00;2.92;;;11.20;91.10;;;;;;5007685;28;20113;-81
2022/01/01 04:27:05;;;;;;;5.65;2.75;;;11.10;91.10;;;;;;5001155;28;20124;-81
2022/01/01 04:29:31;;;;;;;3.65;2.80;;;11.10;91.50;;;;;;5000282;28;20033;-81
2022/01/01 04:31:57;;;;;;;5.70;2.88;;;11.00;91.10;;;;;;5045211;28;20075;-80
2022/01/01 04:34:22;;;;;;;7.38;4.47;;;11.00;91.10;;;;;;5023568;28;20029;-81
2022/01/01 04:36:56;;;;;;;8.05;4.28;;;11.00;91.10;;;;;;5003301;28;20042;-80
2022/01/01 04:39:22;;;;;;;6.93;3.97;;;10.90;91.10;;;;;;5002906;28;20042;-81
2022/01/01 04:41:47;;;;;;;7.50;4.32;;;10.90;91.10;;;;;;5018305;28;20033;-80
2022/01/01 04:44:13;;;;;;;5.22;3.78;;;10.90;91.10;;;;;;5017545;28;20048;-81
2022/01/01 04:46:38;;;;;;;4.65;3.15;;;10.80;91.10;;;;;;5017815;28;20037;-80
2022/01/01 04:49:04;;;;;;;10.82;5.38;;;10.80;91.10;;;;;;5016559;28;20045;-81
2022/01/01 04:51:30;;;;;;;7.55;5.30;;;10.70;91.20;;;;;;5019806;28;20433;-80
2022/01/01 04:53:59;;;;;;;9.48;5.50;;;10.70;91.20;;;;;;5021934;28;20091;-81
2022/01/01 04:56:27;;;;;;;6.70;4.45;;;10.70;91.20;;;;;;5018295;28;20068;-81
2022/01/01 04:58:53;;;;;;;7.45;3.55;;;10.60;91.20;;;;;;5015767;28;20041;-80
2022/01/01 05:01:19;;;;;;;5.00;3.35;;;10.60;91.30;;;;;;5015036;28;20037;-81
2022/01/01 05:03:45;;;;;;;6.65;3.72;;;10.60;91.30;;;;;;5004176;28;20056;-81
2022/01/01 05:06:10;;;;;;;6.75;3.33;;;10.50;91.30;;;;;;5039252;28;20431;-81
2022/01/01 05:08:36;;;;;;;6.43;3.70;;;10.50;91.30;;;;;;5003906;28;20032;-80
2022/01/01 05:11:01;;;;;;;4.97;3.28;;;10.50;91.40;;;;;;5019415;28;20042;-81
2022/01/01 05:13:27;;;;;;;3.55;2.83;;;10.50;91.40;;;;;;5021280;28;20059;-81
2022/01/01 05:15:55;;;;;;;4.97;3.60;;;10.50;91.40;;;;;;5026481;28;20606;-80
2022/01/01 05:18:21;;;;;;;4.13;3.20;;;10.40;91.40;;;;;;5005663;28;20029;-80
2022/01/01 05:20:46;;;;;;;4.95;3.17;;;10.40;91.50;;;;;;5031590;28;20051;-80
2022/01/01 05:23:12;;;;;;;4.90;3.30;;;10.40;91.50;;;;;;5024415;28;20530;-81
2022/01/01 05:25:37;;;;;;;5.70;4.10;;;10.40;91.50;;;;;;5020037;28;20515;-81
2022/01/01 05:28:03;;;;;;;7.95;4.05;;;10.40;91.60;;;;;;5049313;28;20048;-80
2022/01/01 05:30:29;;;;;;;7.47;4.47;;;10.40;91.60;;;;;;5017642;28;20037;-81
2022/01/01 05:32:54;;;;;;;6.38;4.25;;;10.50;91.70;;;;;;5008590;28;20036;-81
2022/01/01 05:35:20;;;;;;;7.07;4.25;;;10.50;91.80;;;;;;5029896;28;20043;-80
2022/01/01 05:37:45;;;;;;;6.75;4.40;;;10.50;91.80;;;;;;5019477;28;20033;-80
2022/01/01 05:40:11;;;;;;;7.63;4.18;;;10.60;91.80;;;;;;5023978;28;20033;-80
2022/01/01 05:42:37;;;;;;;7.45;4.65;;;10.60;91.90;;;;;;4996076;28;20041;-81
2022/01/01 05:45:03;;;;;;;8.55;4.90;;;10.60;91.90;;;;;;5012448;28;20057;-81
2022/01/01 05:47:28;;;;;;;6.47;4.10;;;10.60;91.90;;;;;;5019756;28;20415;-81
2022/01/01 05:49:54;;;;;;;6.97;4.10;;;10.70;91.90;;;;;;4988658;28;20548;-80
2022/01/01 05:52:19;;;;;;;6.63;4.18;;;10.70;91.90;;;;;;5035168;28;20044;-80
2022/01/01 05:54:45;;;;;;;6.15;3.90;;;10.70;91.90;;;;;;5028396;28;20562;-81
2022/01/01 05:57:10;;;;;;;6.63;4.13;;;10.70;91.90;;;;;;5011241;28;22325;-80
2022/01/01 05:59:40;;;;;;;7.95;4.07;;;10.70;91.90;;;;;;5021636;28;20036;-80
2022/01/01 06:02:05;;;;;;;5.43;4.25;;;10.70;91.90;;;;;;5003966;28;20492;-80
2022/01/01 06:04:31;;;;;;;7.53;4.35;;;10.70;91.90;;;;;;5020766;28;20060;-80
2022/01/01 06:06:56;;;;;;;7.80;5.60;;;10.80;91.90;;;;;;4988319;28;20033;-80
2022/01/01 06:09:22;;;;;;;5.25;3.60;;;10.70;91.90;;;;;;5002284;28;20053;-80
2022/01/01 06:11:47;;;;;;;5.47;3.75;;;10.70;91.90;;;;;;5019777;28;20033;-79
2022/01/01 06:14:15;;;;;;;5.32;3.80;;;10.70;92.00;;;;;;4995815;28;20418;-79
2022/01/01 06:16:42;;;;;;;6.25;3.75;;;10.70;92.00;;;;;;5008291;28;20503;-81
2022/01/01 06:19:08;;;;;;;5.18;4.00;;;10.70;92.00;;;;;;5001677;28;20044;-80
2022/01/01 06:21:33;;;;;;;6.22;4.15;;;10.70;92.00;;;;;;5021367;28;20025;-80
2022/01/01 06:23:59;;;;;;;7.72;3.95;;;10.70;92.00;;;;;;5037035;28;20052;-80
2022/01/01 06:26:24;;;;;;;6.40;3.97;;;10.70;92.00;;;;;;5052039;28;20029;-79
2022/01/01 06:28:50;;;;;;;8.52;3.90;;;10.70;92.00;;;;;;4987971;28;20029;-79
2022/01/01 06:31:15;;;;;;;7.18;4.18;;;10.70;92.10;;;;;;5016003;28;20112;-80
2022/01/01 06:33:41;;;;;;;5.30;3.67;;;10.70;92.10;;;;;;5021226;28;20151;-80
2022/01/01 06:36:07;;;;;;;5.07;3.50;;;10.70;92.00;;;;;;5022288;28;20041;-80
2022/01/01 06:38:32;;;;;;;7.20;3.50;;;10.70;92.10;;;;;;5010180;28;20045;-80
2022/01/01 06:40:58;;;;;;;6.03;3.17;;;10.70;92.10;;;;;;5020841;28;20029;-79
2022/01/01 06:43:23;;;;;;;7.53;3.78;;;10.70;92.10;;;;;;4986344;28;20046;-79
2022/01/01 06:45:49;;;;;;;6.93;3.40;;;10.60;92.00;;;;;;5008977;28;20433;-80
2022/01/01 06:48:15;;;;;;;7.88;5.38;;;10.70;92.10;;;;;;5004697;28;20048;-79
2022/01/01 06:50:40;;;;;;;6.05;4.28;;;10.70;92.00;;;;;;5027720;28;20493;-80
2022/01/01 06:53:06;;;;;;;5.88;3.83;;;10.60;92.00;;;;;;4991057;28;20046;-80
2022/01/01 06:55:31;;;;;;;5.38;3.58;;;10.60;92.10;;;;;;5010001;28;22562;-80
2022/01/01 06:57:57;;;;;;;7.03;3.75;;;10.60;92.10;;;;;;5023146;28;20063;-81
2022/01/01 07:00:22;;;;;;;5.18;3.63;;;10.60;92.10;;;;;;5006618;28;20665;-80
2022/01/01 07:02:48;;;;;;;4.20;3.75;;;10.60;92.10;;;;;;5021824;28;20055;-82
2022/01/01 07:05:14;;;;;;;4.78;3.55;;;10.60;92.10;;;;;;5021937;28;20041;-80
2022/01/01 07:07:40;;;;;;;6.13;3.90;;;10.60;92.20;;;;;;5002469;28;20049;-80
2022/01/01 07:10:10;;;;;;;4.85;3.95;;;10.60;92.50;;;;;;5003907;28;20538;-80
2022/01/01 07:12:36;;;;;;;7.22;4.10;;;10.60;92.20;;;;;;5002919;28;20041;-81
2022/01/01 07:15:02;;;;;;;7.88;4.45;;;10.60;92.10;;;;;;5020080;28;20068;-81
2022/01/01 07:17:27;;;;;;;6.35;4.30;;;10.60;92.10;;;;;;5018029;28;20527;-81
2022/01/01 07:19:53;;;;;;;6.57;4.25;;;10.60;92.10;;;;;;5028069;28;20041;-80
2022/01/01 07:22:18;;;;;;;8.38;4.63;;;10.60;92.10;;;;;;5020473;28;20068;-81
2022/01/01 07:24:44;;;;;;;8.15;4.70;;;10.60;92.10;;;;;;5018972;28;20052;-80
2022/01/01 07:27:11;;;;;;;8.27;4.60;;;10.60;92.20;;;;;;5005762;28;20606;-80
2022/01/01 07:29:37;;;;;;;8.02;4.72;;;10.60;92.20;;;;;;5007298;28;20037;-81
2022/01/01 07:32:02;;;;;;;7.05;4.25;;;10.60;92.20;;;;;;5015339;28;20075;-81
2022/01/01 07:34:28;;;;;;;6.15;4.18;;;10.60;92.20;;;;;;5017123;28;20404;-81
2022/01/01 07:36:53;;;;;;;6.45;4.05;;;10.60;92.30;;;;;;5006985;28;20095;-81
2022/01/01 07:39:19;;;;;;;5.43;3.88;;;10.60;92.30;;;;;;5018797;28;20024;-82
2022/01/01 07:41:45;;;;;;;5.47;3.80;;;10.60;92.30;;;;;;5038545;28;20110;-82
2022/01/01 07:44:11;;;;;;;9.48;4.95;;;10.60;92.20;;;;;;5011245;28;20732;-83
2022/01/01 07:46:36;;;;;;;13.10;7.55;;;10.60;92.20;;;;;;5031959;28;20189;-81
2022/01/01 07:49:02;;;;;;;7.70;4.85;;;10.60;92.20;;;;;;5014835;28;20653;-84
2022/01/01 07:51:27;;;;;;;6.15;3.53;;;10.60;92.20;;;;;;5028917;28;20524;-81
2022/01/01 07:53:53;;;;;;;7.35;2.95;;;10.60;92.20;;;;;;5036084;28;20568;-82
2022/01/01 07:56:18;;;;;;;8.35;3.42;;;10.60;92.30;;;;;;5036506;28;20448;-81
2022/01/01 07:58:44;;;;;;;4.85;3.55;;;10.60;92.20;;;;;;5033267;28;20533;-82
2022/01/01 08:01:09;;;;;;;7.35;4.53;;;10.60;92.30;;;;;;5026618;28;20655;-82
2022/01/01 08:03:35;;;;;;;8.75;4.95;;;10.60;92.20;;;;;;5013598;28;20535;-81
2022/01/01 08:06:00;;;;;;;6.38;3.65;;;10.60;92.20;;;;;;5031885;28;20115;-81
2022/01/01 08:08:26;;;;;;;6.97;3.67;;;10.60;92.20;;;;;;5010016;28;20069;-82
2022/01/01 08:10:52;;;;;;;5.68;3.47;;;10.70;92.20;;;;;;5017918;28;20041;-82
2022/01/01 08:13:24;;;;;;;9.52;3.92;;;10.70;92.30;;;;;;5034499;28;20392;-82
2022/01/01 08:15:51;;;;;;;9.38;3.67;;;10.70;92.20;;;;;;5033479;28;20041;-82
2022/01/01 08:18:17;;;;;;;5.07;2.80;;;10.70;92.20;;;;;;5036840;28;20036;-84
2022/01/01 08:20:42;;;;;;;5.05;2.85;;;10.70;92.20;;;;;;5004174;28;20041;-82
2022/01/01 08:23:08;;;;;;;4.43;3.10;;;10.70;92.20;;;;;;5024144;28;20095;-81
2022/01/01 08:25:33;;;;;;;5.88;3.83;;;10.70;92.30;;;;;;5023322;28;20040;-82
2022/01/01 08:27:59;;;;;;;7.30;5.07;;;10.70;92.20;;;;;;5007068;28;20025;-81
2022/01/01 08:30:25;;;;;;;9.85;6.00;;;10.70;92.30;;;;;;5023341;28;20043;-82
2022/01/01 08:32:50;;;;;;;11.05;6.40;;;10.70;92.20;;;;;;5031377;28;20041;-81
2022/01/01 08:35:16;;;;;;;11.07;6.20;;;10.70;92.30;;;;;;5018672;28;20044;-78
2022/01/01 08:37:41;;;;;;;4.47;3.63;;;10.80;92.30;;;;;;5018009;28;20037;-75
2022/01/01 08:40:07;;;;;;;7.38;4.18;;;10.80;92.30;;;;;;5045257;28;20075;-82
2022/01/01 08:42:33;;;;;;;5.13;3.45;;;10.80;92.20;;;;;;5033802;28;20033;-83
2022/01/01 08:44:58;;;;;;;4.13;3.05;;;10.80;92.20;;;;;;5000295;28;20087;-82
2022/01/01 08:47:26;;;;;;;6.85;3.22;;;10.80;92.20;;;;;;5017488;28;20689;-82
2022/01/01 08:49:54;;;;;;;6.97;3.70;;;10.80;92.30;;;;;;5010045;28;20064;-82
2022/01/01 08:52:20;;;;;;;7.13;3.72;;;10.80;92.20;;;;;;5009438;28;20539;-83
2022/01/01 08:54:45;;;;;;;8.70;4.32;;;10.80;92.20;;;;;;5021800;28;20077;-83
2022/01/01 08:57:11;;;;;;;22.55;11.30;;;10.90;92.20;;;;;;5036332;28;20135;-83
2022/01/01 08:59:37;;;;;;;26.15;14.73;;;10.90;92.20;;;;;;5043999;28;20442;-82
2022/01/01 09:02:02;;;;;;;12.85;7.07;;;10.90;92.20;;;;;;5037749;28;20062;-83
2022/01/01 09:04:28;;;;;;;15.25;7.78;;;10.90;92.20;;;;;;5037555;28;21959;-83
2022/01/01 09:06:53;;;;;;;8.88;5.80;;;10.90;92.10;;;;;;5022878;28;20044;-81
2022/01/01 09:09:19;;;;;;;10.90;5.57;;;10.90;92.10;;;;;;5038365;28;20029;-83
2022/01/01 09:11:44;;;;;;;6.15;4.70;;;10.90;92.10;;;;;;5033570;28;20197;-83
2022/01/01 09:14:10;;;;;;;6.47;4.28;;;11.00;92.10;;;;;;4993336;28;20743;-82
2022/01/01 09:16:36;;;;;;;6.10;3.70;;;11.00;92.10;;;;;;5031917;28;20775;-83
2022/01/01 09:19:02;;;;;;;5.95;3.40;;;11.10;92.10;;;;;;5004548;28;20041;-83
2022/01/01 09:21:27;;;;;;;5.60;3.03;;;11.10;92.10;;;;;;5024833;28;20147;-81
2022/01/01 09:23:54;;;;;;;4.47;2.92;;;11.10;92.10;;;;;;5004807;28;20124;-80
2022/01/01 09:26:21;;;;;;;6.32;3.83;;;11.10;92.10;;;;;;4994017;28;20072;-80
2022/01/01 09:28:46;;;;;;;8.15;3.20;;;11.10;92.10;;;;;;5033339;28;20025;-81
2022/01/01 09:31:12;;;;;;;4.50;2.47;;;11.10;92.00;;;;;;5027926;28;20061;-81
2022/01/01 09:33:37;;;;;;;3.53;2.83;;;11.20;92.10;;;;;;4994283;28;20677;-81
2022/01/01 09:36:04;;;;;;;3.92;2.72;;;11.20;92.00;;;;;;5035795;28;20037;-79
2022/01/01 09:38:30;;;;;;;4.25;3.00;;;11.20;92.00;;;;;;5016400;28;20041;-81
2022/01/01 09:40:56;;;;;;;5.82;3.03;;;11.30;92.00;;;;;;5034737;28;20064;-81
2022/01/01 09:43:23;;;;;;;5.63;2.72;;;11.30;92.00;;;;;;4999709;28;20063;-82
2022/01/01 09:45:49;;;;;;;3.88;2.50;;;11.30;92.00;;;;;;5028214;28;20040;-82
2022/01/01 09:48:14;;;;;;;5.55;3.20;;;11.30;91.90;;;;;;5017440;28;20037;-82
2022/01/01 09:50:42;;;;;;;4.63;2.90;;;11.40;92.00;;;;;;5020883;28;20121;-82
2022/01/01 09:53:07;;;;;;;5.22;2.63;;;11.40;91.90;;;;;;5031828;28;20071;-82
2022/01/01 09:55:34;;;;;;;4.25;2.72;;;11.40;92.20;;;;;;5025225;28;20468;-83
2022/01/01 09:58:00;;;;;;;5.47;3.30;;;11.40;91.80;;;;;;5017169;28;20025;-82
2022/01/01 10:00:25;;;;;;;5.45;3.22;;;11.50;91.80;;;;;;5020042;28;20775;-85
2022/01/01 10:02:51;;;;;;;4.47;3.25;;;11.50;91.80;;;;;;5000645;28;20040;-83
2022/01/01 10:05:16;;;;;;;4.95;2.67;;;11.50;91.80;;;;;;5015758;28;20930;-81
2022/01/01 10:07:42;;;;;;;4.00;2.97;;;11.60;91.80;;;;;;5013910;28;20523;-76
2022/01/01 10:10:21;;;;;;;4.22;2.95;;;11.60;91.80;;;;;;5017175;28;20528;-83
2022/01/01 10:12:47;;;;;;;5.07;2.83;;;11.60;91.70;;;;;;5006969;28;20053;-81
2022/01/01 10:15:12;;;;;;;4.20;3.13;;;11.60;91.70;;;;;;5031707;28;20037;-82
2022/01/01 10:17:38;;;;;;;5.45;3.28;;;11.70;91.70;;;;;;4978826;28;20055;-81
2022/01/01 10:20:04;;;;;;;5.75;3.03;;;11.70;91.70;;;;;;5012748;28;20039;-82
2022/01/01 10:22:30;;;;;;;5.25;2.95;;;11.70;91.60;;;;;;5011496;28;20147;-82
2022/01/01 10:28:04;;;;;;;7.07;3.20;;;11.80;91.60;;;;;;5012528;28;20118;-82
2022/01/01 10:30:31;;;;;;;4.93;3.08;;;11.90;91.60;;;;;;5031378;28;20630;-83
2022/01/01 10:33:13;;;;;;;7.47;3.67;;;11.90;91.60;;;;;;5016522;28;20044;-82
2022/01/01 10:35:49;;;;;;;3.55;2.78;;;11.90;91.50;;;;;;5000877;28;20443;-82
2022/01/01 10:38:28;;;;;;;4.60;3.00;;;12.00;91.50;;;;;;5002252;28;20112;-81
2022/01/01 10:40:56;;;;;;;7.60;2.90;;;12.00;91.50;;;;;;5038470;28;20039;-81
2022/01/01 10:43:33;;;;;;;3.88;2.60;;;12.00;91.50;;;;;;5002373;28;20418;-81
2022/01/01 10:45:59;;;;;;;6.80;2.55;;;12.10;91.40;;;;;;5025882;28;20037;-83
2022/01/01 10:48:39;;;;;;;5.40;2.78;;;12.10;91.40;;;;;;5034531;28;20517;-82
2022/01/01 10:51:08;;;;;;;4.53;2.70;;;12.20;91.40;;;;;;5007431;28;20042;-82
2022/01/01 10:53:34;;;;;;;5.50;3.00;;;12.10;91.30;;;;;;5024987;28;20053;-81
2022/01/01 10:56:03;;;;;;;4.20;2.95;;;12.20;91.30;;;;;;5019754;28;20044;-81
2022/01/01 10:58:35;;;;;;;4.60;3.00;;;12.20;91.30;;;;;;5022253;28;20543;-81
2022/01/01 11:01:06;;;;;;;7.22;3.40;;;12.20;91.20;;;;;;5042785;28;20175;-82
2022/01/01 11:03:36;;;;;;;3.90;2.67;;;12.30;91.20;;;;;;5008184;28;20048;-82
2022/01/01 11:06:10;;;;;;;4.45;2.67;;;12.30;91.10;;;;;;5028041;28;20037;-81
2022/01/01 11:08:45;;;;;;;5.32;3.00;;;12.30;91.10;;;;;;5017729;28;20049;-81
2022/01/01 11:11:12;;;;;;;5.75;2.83;;;12.40;91.10;;;;;;5038024;28;20037;-82
2022/01/01 11:13:38;;;;;;;3.22;2.53;;;12.40;91.10;;;;;;5003181;28;20116;-82
2022/01/01 11:16:04;;;;;;;6.20;2.67;;;12.40;91.00;;;;;;4997691;28;20454;-81
2022/01/01 11:18:30;;;;;;;4.28;2.60;;;12.50;91.00;;;;;;5042270;28;20036;-82
2022/01/01 11:20:56;;;;;;;4.00;3.17;;;12.50;91.00;;;;;;4996203;28;20093;-73
2022/01/01 11:23:22;;;;;;;7.00;3.17;;;12.50;90.90;;;;;;5043977;28;20120;-74
2022/01/01 11:25:48;;;;;;;5.50;3.10;;;12.60;90.90;;;;;;5028015;28;20127;-73
2022/01/01 11:28:16;;;;;;;7.47;3.88;;;12.60;90.80;;;;;;5015574;28;20040;-81
2022/01/01 11:30:48;;;;;;;5.68;3.10;;;12.60;90.80;;;;;;4993437;28;20123;-82
2022/01/01 11:33:27;;;;;;;3.03;2.47;;;12.70;90.80;;;;;;5041838;28;20041;-73
2022/01/01 11:35:59;;;;;;;4.50;2.67;;;12.70;90.70;;;;;;5018247;28;20610;-82
2022/01/01 11:38:25;;;;;;;16.08;11.63;;;12.80;90.70;;;;;;5033424;28;20047;-80
2022/01/01 11:41:07;;;;;;;83.05;73.53;;;12.80;90.70;;;;;;5022695;28;20859;-80
2022/01/01 11:43:53;;;;;;;5.93;4.55;;;12.90;90.50;;;;;;5016278;28;20038;-80
2022/01/01 11:46:26;;;;;;;10.50;7.53;;;13.00;90.50;;;;;;5018212;28;20543;-80
2022/01/01 11:48:55;;;;;;;35.13;27.75;;;13.00;90.50;;;;;;5020313;28;20047;-80
2022/01/01 11:51:26;;;;;;;19.52;11.70;;;13.10;90.50;;;;;;5021084;28;20033;-80
2022/01/01 11:54:08;;;;;;;5.10;3.50;;;13.10;90.40;;;;;;5021731;28;20060;-80
2022/01/01 11:57:09;;;;;;;5.35;3.40;;;13.10;90.20;;;;;;5022760;28;20040;-81
2022/01/01 11:59:37;;;;;;;8.23;6.65;;;13.20;90.10;;;;;;5025279;28;20029;-80
2022/01/01 12:02:17;;;;;;;9.68;7.00;;;13.20;90.20;;;;;;5039821;28;20033;-80
2022/01/01 12:04:45;;;;;;;9.68;6.85;;;13.20;90.20;;;;;;5024842;28;20068;-80
2022/01/01 12:07:20;;;;;;;4.07;2.90;;;13.30;90.20;;;;;;5010353;28;20515;-80
2022/01/01 12:09:57;;;;;;;12.20;9.07;;;13.30;90.10;;;;;;5030220;28;20476;-80
2022/01/01 12:12:38;;;;;;;4.80;3.58;;;13.30;90.00;;;;;;5046387;28;20127;-80
2022/01/01 12:15:05;;;;;;;4.78;3.10;;;13.30;89.90;;;;;;5021661;28;20392;-80
2022/01/01 12:17:43;;;;;;;6.13;4.68;;;13.30;90.00;;;;;;5006737;28;20040;-81
2022/01/01 12:20:19;;;;;;;16.30;11.40;;;13.30;89.60;;;;;;5004363;28;20040;-81
2022/01/01 12:22:46;;;;;;;7.82;5.18;;;13.30;89.70;;;;;;4996939;28;20052;-81
2022/01/01 12:25:21;;;;;;;8.90;4.07;;;13.40;89.70;;;;;;5017215;28;20086;-81
2022/01/01 12:27:48;;;;;;;10.60;5.30;;;13.40;89.60;;;;;;5038070;28;20098;-80
2022/01/01 12:30:29;;;;;;;8.48;4.82;;;13.40;89.50;;;;;;5023737;28;20048;-81
2022/01/01 12:32:54;;;;;;;8.02;4.15;;;13.40;89.40;;;;;;5005572;28;20474;-80
2022/01/01 12:35:22;;;;;;;7.95;4.32;;;13.40;89.30;;;;;;5025961;28;20034;-81
2022/01/01 12:37:49;;;;;;;5.60;3.55;;;13.40;89.20;;;;;;5005447;28;20040;-80
2022/01/01 12:40:14;;;;;;;7.30;4.03;;;13.40;89.20;;;;;;4996790;28;20151;-80
2022/01/01 12:42:45;;;;;;;6.07;3.90;;;13.40;89.10;;;;;;5031947;28;20437;-81
2022/01/01 12:45:10;;;;;;;4.40;2.70;;;13.50;89.00;;;;;;5020338;28;20128;-81
2022/01/01 12:47:36;;;;;;;5.22;3.08;;;13.50;88.90;;;;;;4990211;28;20577;-81
2022/01/01 12:50:06;;;;;;;8.05;3.50;;;13.50;88.80;;;;;;5001043;28;20096;-81